Time;durP1;ratioP1;P1;durP2;ratioP2;P2;SDS_P1;SDS_P2;PMS_P1;PMS_P2;Temp;Humidity;BMP_temperature;BMP_pressure;BME280_temperature;BME280_humidity;BME280_pressure;Samples;Min_cycle;Max_cycle;Signal;HPM_P1;HPM_P2
2022/07/11 00:00:14;;;;;;;1.47;0.87;;;16.10;99.90;;;;;;4977252;28;20208;-87
2022/07/11 00:02:40;;;;;;;5.17;1.57;;;16.10;99.90;;;;;;5018576;28;20226;-87
2022/07/11 00:05:07;;;;;;;3.23;1.40;;;16.10;99.90;;;;;;5002733;28;20223;-87
2022/07/11 00:07:33;;;;;;;10.50;2.03;;;16.10;99.90;;;;;;4985652;28;20227;-87
2022/07/11 00:09:59;;;;;;;4.70;0.83;;;16.10;99.90;;;;;;5009024;28;20195;-87
2022/07/11 00:12:26;;;;;;;1.20;1.10;;;16.00;99.90;;;;;;4993109;28;20226;-87
2022/07/11 00:14:56;;;;;;;2.37;1.47;;;16.00;99.90;;;;;;4976956;28;20211;-86
2022/07/11 00:17:23;;;;;;;3.23;1.30;;;16.00;99.90;;;;;;5000419;28;20272;-87
2022/07/11 00:19:49;;;;;;;2.97;1.23;;;16.00;99.90;;;;;;5002049;28;20230;-87
2022/07/11 00:22:15;;;;;;;2.23;1.60;;;16.00;99.90;;;;;;5001899;28;20654;-86
2022/07/11 00:24:40;;;;;;;2.03;1.30;;;16.00;99.90;;;;;;5009337;28;20208;-87
2022/07/11 00:27:06;;;;;;;2.33;1.50;;;16.00;99.90;;;;;;4991576;28;20265;-87
2022/07/11 00:29:32;;;;;;;1.73;1.53;;;16.00;99.90;;;;;;4992388;28;20234;-87
2022/07/11 00:31:59;;;;;;;2.60;1.83;;;16.00;99.90;;;;;;4993200;28;20204;-87
2022/07/11 00:34:24;;;;;;;2.63;1.17;;;16.00;99.90;;;;;;5001867;28;20195;-87
2022/07/11 00:36:51;;;;;;;5.03;1.10;;;16.00;99.90;;;;;;5009082;28;20187;-87
2022/07/11 00:39:17;;;;;;;3.57;1.00;;;16.00;99.90;;;;;;5025188;28;20222;-87
2022/07/11 00:41:43;;;;;;;1.47;1.23;;;16.00;99.90;;;;;;4984767;28;20222;-87
2022/07/11 00:44:09;;;;;;;3.50;1.17;;;16.00;99.90;;;;;;4992230;28;20231;-87
2022/07/11 00:46:35;;;;;;;4.50;1.50;;;16.00;99.90;;;;;;5009231;28;21409;-87
2022/07/11 00:49:01;;;;;;;3.47;1.00;;;16.10;99.90;;;;;;4993125;28;20211;-87
2022/07/11 00:51:27;;;;;;;1.10;1.00;;;16.00;99.90;;;;;;5001196;28;20216;-87
2022/07/11 00:53:57;;;;;;;1.20;1.00;;;16.00;99.90;;;;;;4992761;28;20680;-87
2022/07/11 00:56:25;;;;;;;2.80;1.07;;;16.00;99.90;;;;;;5002288;28;20225;-87
2022/07/11 00:58:52;;;;;;;1.50;1.10;;;16.00;99.90;;;;;;5004541;28;20278;-87
2022/07/11 01:01:19;;;;;;;5.23;1.27;;;16.00;99.90;;;;;;4996242;28;20217;-86
2022/07/11 01:03:45;;;;;;;1.90;1.00;;;16.00;99.90;;;;;;5004560;28;20794;-87
2022/07/11 01:06:11;;;;;;;1.37;1.17;;;16.00;99.90;;;;;;5012907;28;20377;-87
2022/07/11 01:08:38;;;;;;;2.20;1.20;;;16.00;99.90;;;;;;5004145;28;20215;-87
2022/07/11 01:11:09;;;;;;;1.63;1.00;;;16.00;99.90;;;;;;5006693;28;20227;-87
2022/07/11 01:13:34;;;;;;;2.73;1.53;;;16.00;99.90;;;;;;5005809;28;20227;-87
2022/07/11 01:16:26;;;;;;;5.60;1.20;;;16.00;99.90;;;;;;5005463;28;20184;-87
2022/07/11 01:18:54;;;;;;;0.97;0.93;;;16.00;99.90;;;;;;5004544;28;20228;-87
2022/07/11 01:21:29;;;;;;;2.57;1.00;;;16.00;99.90;;;;;;4995711;28;20653;-88
2022/07/11 01:23:57;;;;;;;1.90;1.00;;;16.00;99.90;;;;;;5003473;28;20732;-87
2022/07/11 01:26:24;;;;;;;1.77;1.03;;;16.00;99.90;;;;;;5025074;28;20219;-87
2022/07/11 01:28:51;;;;;;;1.00;0.93;;;16.00;99.90;;;;;;5010128;28;20706;-87
2022/07/11 01:31:17;;;;;;;1.73;0.70;;;16.00;99.90;;;;;;5003540;28;20188;-87
2022/07/11 01:33:43;;;;;;;0.97;0.63;;;16.00;99.90;;;;;;4985880;28;20211;-87
2022/07/11 01:36:09;;;;;;;2.53;0.67;;;16.00;99.90;;;;;;4994782;28;20242;-87
2022/07/11 01:38:36;;;;;;;0.90;0.50;;;16.00;99.90;;;;;;4995613;28;20230;-87
2022/07/11 01:41:02;;;;;;;0.77;0.57;;;16.00;99.90;;;;;;5003706;28;20306;-86
2022/07/11 01:43:28;;;;;;;0.50;0.50;;;16.00;99.90;;;;;;4995767;28;20210;-87
2022/07/11 01:45:54;;;;;;;1.20;0.90;;;16.00;99.90;;;;;;4994612;28;20723;-87
2022/07/11 01:48:21;;;;;;;1.47;1.07;;;16.00;99.90;;;;;;4995012;28;20753;-87
2022/07/11 01:50:47;;;;;;;1.33;1.23;;;16.00;99.90;;;;;;4979731;28;20685;-87
2022/07/11 01:53:13;;;;;;;0.47;0.47;;;16.00;99.90;;;;;;5027444;28;20310;-87
2022/07/11 01:55:39;;;;;;;0.70;0.70;;;16.10;99.90;;;;;;5004498;28;20326;-87
2022/07/11 01:58:05;;;;;;;0.97;0.67;;;16.10;99.90;;;;;;4996709;28;20229;-87
2022/07/11 02:00:31;;;;;;;1.73;1.23;;;16.10;99.90;;;;;;5004903;28;20302;-86
2022/07/11 02:02:57;;;;;;;3.37;0.73;;;16.10;99.90;;;;;;5011281;28;20255;-86
2022/07/11 02:05:22;;;;;;;2.07;1.00;;;16.10;99.90;;;;;;5005178;28;20235;-86
2022/07/11 02:10:32;;;;;;;2.10;1.20;;;16.20;99.90;;;;;;5006154;28;20545;-86
2022/07/11 02:12:59;;;;;;;1.67;0.93;;;16.20;99.90;;;;;;5003941;28;20188;-87
2022/07/11 02:15:29;;;;;;;3.93;1.03;;;16.20;99.90;;;;;;4994673;28;20203;-87
2022/07/11 02:17:56;;;;;;;1.30;0.60;;;16.20;99.90;;;;;;4987494;28;20215;-87
2022/07/11 02:20:22;;;;;;;0.30;0.30;;;16.20;99.90;;;;;;4978090;28;20283;-87
2022/07/11 02:22:48;;;;;;;0.63;0.53;;;16.10;99.90;;;;;;4986814;28;20215;-87
2022/07/11 02:25:14;;;;;;;0.50;0.30;;;16.00;99.90;;;;;;4977671;28;20286;-87
2022/07/11 02:27:40;;;;;;;1.40;0.47;;;16.00;99.90;;;;;;4992774;28;20220;-87
2022/07/11 02:30:07;;;;;;;0.43;0.43;;;16.00;99.90;;;;;;5006874;28;20215;-87
2022/07/11 02:32:33;;;;;;;1.17;0.57;;;16.00;99.90;;;;;;4994398;28;20204;-88
2022/07/11 02:34:59;;;;;;;2.20;0.43;;;16.00;99.90;;;;;;5004527;28;20235;-87
2022/07/11 02:37:25;;;;;;;0.67;0.57;;;16.10;99.90;;;;;;5010069;28;20180;-87
2022/07/11 02:39:51;;;;;;;2.00;0.67;;;16.10;99.90;;;;;;5002880;28;20195;-87
2022/07/11 02:42:18;;;;;;;5.10;1.03;;;16.20;99.90;;;;;;5001018;28;20215;-87
2022/07/11 02:44:45;;;;;;;1.73;0.80;;;16.20;99.90;;;;;;5002925;28;20219;-87
2022/07/11 02:47:11;;;;;;;1.77;0.90;;;16.20;99.90;;;;;;5002350;28;20212;-87
2022/07/11 02:49:37;;;;;;;1.07;0.57;;;16.30;99.90;;;;;;5002497;28;20594;-87
2022/07/11 02:52:04;;;;;;;3.70;0.90;;;16.30;99.90;;;;;;5004764;28;20905;-87
2022/07/11 02:54:30;;;;;;;1.53;0.90;;;16.30;99.90;;;;;;5002349;28;20220;-87
2022/07/11 02:56:56;;;;;;;0.73;0.40;;;16.30;99.90;;;;;;5018739;28;20299;-87
2022/07/11 02:59:22;;;;;;;5.23;0.60;;;16.30;99.90;;;;;;5026375;28;20223;-87
2022/07/11 03:01:49;;;;;;;4.37;0.50;;;16.30;99.90;;;;;;5009919;28;20215;-88
2022/07/11 03:04:15;;;;;;;2.10;0.60;;;16.20;99.90;;;;;;5002361;28;20619;-87
2022/07/11 03:06:41;;;;;;;0.50;0.40;;;16.20;99.90;;;;;;5003830;28;20726;-87
2022/07/11 03:09:08;;;;;;;0.83;0.40;;;16.20;99.90;;;;;;5018951;28;20211;-87
2022/07/11 03:11:34;;;;;;;1.17;0.73;;;16.20;99.90;;;;;;5004303;28;20229;-87
2022/07/11 03:14:03;;;;;;;2.10;0.77;;;16.20;99.90;;;;;;5003058;28;20219;-87
2022/07/11 03:16:30;;;;;;;0.57;0.57;;;16.20;99.90;;;;;;5001196;28;20180;-87
2022/07/11 03:18:56;;;;;;;0.40;0.20;;;16.10;99.90;;;;;;5001925;28;20197;-87
2022/07/11 03:21:23;;;;;;;1.27;0.70;;;16.20;99.90;;;;;;5000307;28;20726;-87
2022/07/11 03:23:49;;;;;;;0.40;0.30;;;16.20;99.90;;;;;;5003469;28;20267;-86
2022/07/11 03:26:16;;;;;;;0.20;0.20;;;16.20;99.90;;;;;;4994268;28;20695;-87
2022/07/11 03:28:42;;;;;;;0.60;0.43;;;16.20;99.90;;;;;;5001334;28;20730;-87
2022/07/11 03:31:07;;;;;;;0.40;0.40;;;16.20;99.90;;;;;;5017574;28;20183;-87
2022/07/11 03:33:34;;;;;;;1.10;0.53;;;16.20;99.90;;;;;;5001674;28;20234;-87
2022/07/11 03:35:59;;;;;;;0.20;0.20;;;16.20;99.90;;;;;;5000715;28;20215;-88
2022/07/11 03:38:25;;;;;;;3.40;0.57;;;16.20;99.90;;;;;;4984945;28;20219;-87
2022/07/11 03:40:51;;;;;;;0.57;0.37;;;16.10;99.90;;;;;;5000721;28;20217;-88
2022/07/11 03:43:17;;;;;;;0.60;0.30;;;16.20;99.90;;;;;;5000594;28;20180;-87
2022/07/11 03:45:43;;;;;;;0.20;0.20;;;16.10;99.90;;;;;;5010218;28;20208;-88
2022/07/11 03:48:10;;;;;;;1.00;0.43;;;16.10;99.90;;;;;;5000369;28;20794;-88
2022/07/11 03:50:36;;;;;;;1.00;0.40;;;16.10;99.90;;;;;;5001886;28;20300;-88
2022/07/11 03:53:02;;;;;;;0.40;0.30;;;16.10;99.90;;;;;;4999844;28;20226;-87
2022/07/11 03:55:28;;;;;;;1.23;0.60;;;16.10;99.90;;;;;;5017957;28;20213;-87
2022/07/11 03:57:54;;;;;;;0.50;0.40;;;16.20;99.90;;;;;;5010193;28;20222;-87
2022/07/11 04:00:21;;;;;;;0.40;0.40;;;16.20;99.90;;;;;;5002097;28;20254;-86
2022/07/11 04:02:50;;;;;;;1.20;0.47;;;16.20;99.90;;;;;;5003339;28;20275;-87
2022/07/11 04:05:16;;;;;;;0.30;0.30;;;16.20;99.90;;;;;;5025740;28;20699;-87
2022/07/11 04:07:44;;;;;;;0.83;0.40;;;16.20;99.90;;;;;;5001806;28;20246;-86
2022/07/11 04:10:10;;;;;;;1.63;0.60;;;16.10;99.90;;;;;;5002795;28;20194;-87
2022/07/11 04:12:35;;;;;;;1.07;0.60;;;16.20;99.90;;;;;;4992748;28;20680;-87
2022/07/11 04:15:02;;;;;;;1.17;0.90;;;16.20;99.90;;;;;;4992038;28;20222;-87
2022/07/11 04:17:28;;;;;;;3.37;0.50;;;16.20;99.90;;;;;;4998771;28;20212;-85
2022/07/11 04:19:54;;;;;;;0.40;0.40;;;16.20;99.90;;;;;;5000351;28;20204;-86
2022/07/11 04:22:23;;;;;;;0.50;0.50;;;16.20;99.90;;;;;;5008881;28;20220;-86
2022/07/11 04:24:49;;;;;;;1.90;0.77;;;16.20;99.90;;;;;;5001891;28;20214;-86
2022/07/11 04:27:15;;;;;;;0.60;0.37;;;16.20;99.90;;;;;;4985192;28;20211;-87
2022/07/11 04:29:41;;;;;;;0.40;0.30;;;16.20;99.90;;;;;;4992147;28;20221;-85
2022/07/11 04:32:07;;;;;;;0.40;0.40;;;16.20;99.90;;;;;;4991950;28;20285;-85
2022/07/11 04:34:33;;;;;;;0.70;0.53;;;16.30;99.90;;;;;;4984524;28;20195;-87
2022/07/11 04:36:59;;;;;;;0.40;0.40;;;16.30;99.90;;;;;;5001604;28;20278;-86
2022/07/11 04:39:25;;;;;;;0.30;0.30;;;16.30;99.90;;;;;;5001872;28;20302;-88
2022/07/11 04:41:51;;;;;;;0.20;0.20;;;16.20;99.90;;;;;;5000973;28;20239;-88
2022/07/11 04:44:17;;;;;;;0.30;0.30;;;16.20;99.90;;;;;;5000202;28;20554;-88
2022/07/11 04:46:42;;;;;;;0.30;0.30;;;16.20;99.90;;;;;;4983169;28;20360;-88
2022/07/11 04:49:08;;;;;;;0.30;0.30;;;16.20;99.90;;;;;;5009187;28;20250;-88
2022/07/11 04:51:36;;;;;;;0.67;0.23;;;16.30;99.90;;;;;;5025651;28;20684;-87
2022/07/11 04:54:02;;;;;;;0.43;0.43;;;16.40;99.90;;;;;;4983487;28;20216;-88
2022/07/11 04:56:28;;;;;;;0.97;0.40;;;16.40;99.90;;;;;;5000883;28;20341;-88
2022/07/11 04:58:53;;;;;;;0.10;0.10;;;16.40;99.90;;;;;;4993099;28;20689;-87
2022/07/11 05:01:19;;;;;;;0.20;0.20;;;16.40;99.90;;;;;;5002376;28;20315;-88
2022/07/11 05:03:45;;;;;;;0.30;0.30;;;16.30;99.90;;;;;;4983777;28;20231;-88
2022/07/11 05:06:11;;;;;;;0.67;0.67;;;16.40;99.90;;;;;;4982675;28;20707;-89
2022/07/11 05:08:39;;;;;;;0.13;0.13;;;16.40;99.90;;;;;;4992093;28;20231;-89
2022/07/11 05:11:05;;;;;;;0.20;0.20;;;16.50;99.90;;;;;;4970187;28;20215;-89
2022/07/11 05:13:31;;;;;;;0.20;0.20;;;16.50;99.90;;;;;;5001134;28;20245;-87
2022/07/11 05:15:58;;;;;;;0.53;0.30;;;16.50;99.90;;;;;;5000332;28;20184;-89
2022/07/11 05:18:23;;;;;;;0.50;0.40;;;16.40;99.90;;;;;;5008700;28;20215;-89
2022/07/11 05:20:49;;;;;;;0.10;0.10;;;16.40;99.90;;;;;;4971792;28;20243;-88
2022/07/11 05:23:15;;;;;;;2.90;0.37;;;16.20;99.90;;;;;;4984801;28;20330;-90
2022/07/11 05:25:41;;;;;;;0.10;0.10;;;16.10;99.90;;;;;;4968706;28;20229;-89
2022/07/11 05:28:07;;;;;;;0.40;0.40;;;16.10;99.90;;;;;;5003694;28;20183;-89
2022/07/11 05:30:33;;;;;;;0.37;0.37;;;16.10;99.90;;;;;;5001209;28;20231;-88
2022/07/11 05:32:59;;;;;;;0.67;0.53;;;16.20;99.90;;;;;;4993435;28;20219;-89
2022/07/11 05:35:25;;;;;;;0.13;0.13;;;16.30;99.90;;;;;;5025539;28;20215;-89
2022/07/11 05:37:51;;;;;;;0.33;0.10;;;16.30;99.90;;;;;;5002163;28;20220;-89
2022/07/11 05:40:16;;;;;;;0.20;0.20;;;16.30;99.90;;;;;;5009011;28;20527;-88
2022/07/11 05:42:42;;;;;;;0.47;0.37;;;16.20;99.90;;;;;;5001580;28;20176;-89
2022/07/11 05:45:11;;;;;;;0.20;0.20;;;16.30;99.90;;;;;;5011224;28;20224;-89
2022/07/11 05:47:37;;;;;;;0.30;0.30;;;16.40;99.90;;;;;;5005586;28;20206;-89
2022/07/11 05:50:04;;;;;;;0.70;0.20;;;16.40;99.90;;;;;;4988750;28;20595;-88
2022/07/11 05:52:30;;;;;;;1.43;0.20;;;16.50;99.90;;;;;;4995760;28;20659;-90
2022/07/11 05:54:56;;;;;;;0.57;0.57;;;16.50;99.90;;;;;;5012014;28;20188;-92
2022/07/11 05:57:22;;;;;;;0.10;0.10;;;16.60;99.90;;;;;;4993406;28;20219;-92
2022/07/11 05:59:54;;;;;;;0.67;0.30;;;16.70;99.90;;;;;;5012473;28;20350;-92
2022/07/11 06:02:20;;;;;;;0.30;0.30;;;16.60;99.90;;;;;;5005087;28;20220;-91
2022/07/11 06:04:46;;;;;;;0.30;0.30;;;16.60;99.90;;;;;;4996454;28;20227;-90
2022/07/11 06:07:11;;;;;;;0.30;0.20;;;16.80;99.90;;;;;;4996276;28;20236;-91
2022/07/11 06:09:37;;;;;;;0.33;0.33;;;16.90;99.90;;;;;;4988402;28;20273;-89
2022/07/11 06:12:05;;;;;;;0.23;0.23;;;17.00;99.90;;;;;;5003628;28;20224;-95
2022/07/11 06:14:30;;;;;;;0.30;0.30;;;17.00;99.90;;;;;;4988635;28;20216;-90
2022/07/11 06:16:56;;;;;;;0.10;0.10;;;17.10;99.90;;;;;;5002527;28;20219;-90
2022/07/11 06:19:22;;;;;;;0.10;0.10;;;17.10;99.90;;;;;;5004825;28;20335;-90
2022/07/11 06:21:48;;;;;;;0.10;0.10;;;17.10;99.90;;;;;;4995833;28;20180;-90
2022/07/11 06:24:13;;;;;;;0.30;0.30;;;16.90;99.90;;;;;;4987581;28;20219;-89
2022/07/11 06:26:39;;;;;;;1.10;0.10;;;16.80;99.90;;;;;;4988519;28;20262;-90
2022/07/11 06:29:05;;;;;;;0.10;0.10;;;16.80;99.90;;;;;;4988437;28;20218;-90
2022/07/11 06:31:31;;;;;;;0.10;0.10;;;16.80;99.90;;;;;;4994238;28;20175;-91
2022/07/11 06:33:57;;;;;;;0.10;0.10;;;16.90;99.90;;;;;;5004313;28;20192;-91
2022/07/11 06:36:26;;;;;;;0.93;0.30;;;17.10;99.90;;;;;;5002742;28;20229;-89
2022/07/11 06:38:53;;;;;;;1.30;0.10;;;17.20;99.90;;;;;;5003262;28;20273;-89
2022/07/11 06:41:19;;;;;;;0.10;0.10;;;17.40;99.90;;;;;;4987986;28;20700;-88
2022/07/11 06:43:47;;;;;;;0.17;0.17;;;17.30;99.90;;;;;;5002719;28;20247;-90
2022/07/11 06:46:14;;;;;;;0.30;0.30;;;17.60;99.90;;;;;;5010983;28;20218;-91
2022/07/11 06:48:41;;;;;;;3.03;0.30;;;17.50;99.90;;;;;;5003595;28;20680;-90
2022/07/11 06:51:07;;;;;;;0.10;0.10;;;17.40;99.90;;;;;;5003667;28;20211;-91
2022/07/11 06:53:33;;;;;;;0.20;0.20;;;17.40;99.90;;;;;;5028307;28;20687;-89
2022/07/11 06:55:59;;;;;;;0.93;0.37;;;17.70;99.90;;;;;;4987616;28;20222;-89
2022/07/11 06:58:33;;;;;;;0.20;0.20;;;18.50;99.90;;;;;;5004516;28;20648;-90
2022/07/11 07:01:04;;;;;;;0.20;0.20;;;18.70;99.90;;;;;;5011553;28;20662;-92
2022/07/11 07:03:32;;;;;;;0.10;0.10;;;18.40;99.90;;;;;;5005419;28;20556;-89
2022/07/11 07:05:58;;;;;;;0.20;0.20;;;18.30;99.90;;;;;;5010252;28;21108;-90
2022/07/11 07:08:25;;;;;;;0.20;0.20;;;18.40;99.90;;;;;;5002394;28;20239;-88
2022/07/11 07:10:51;;;;;;;0.20;0.20;;;18.20;99.90;;;;;;4986484;28;20710;-89
2022/07/11 07:13:18;;;;;;;0.30;0.30;;;18.40;99.90;;;;;;5020239;28;20179;-89
2022/07/11 07:15:44;;;;;;;0.20;0.20;;;18.70;99.90;;;;;;5010942;28;20202;-90
2022/07/11 07:18:11;;;;;;;0.20;0.20;;;18.60;99.90;;;;;;4994332;28;20705;-93
2022/07/11 07:20:37;;;;;;;0.20;0.20;;;18.90;99.90;;;;;;5001153;28;20227;-92
2022/07/11 07:23:03;;;;;;;0.20;0.20;;;19.30;99.90;;;;;;4993497;28;20223;-91
2022/07/11 07:25:28;;;;;;;0.10;0.10;;;19.00;99.90;;;;;;5001706;28;20219;-91
2022/07/11 07:27:54;;;;;;;0.20;0.20;;;18.90;99.90;;;;;;4993968;28;20280;-91
2022/07/11 07:30:20;;;;;;;0.13;0.13;;;18.90;99.90;;;;;;4994709;28;20220;-93
2022/07/11 07:32:46;;;;;;;0.27;0.27;;;18.80;99.90;;;;;;5002754;28;20298;-90
2022/07/11 07:35:12;;;;;;;0.20;0.20;;;18.90;99.90;;;;;;4987288;28;20210;-90
2022/07/11 07:37:37;;;;;;;0.60;0.30;;;18.70;99.90;;;;;;5004928;28;20239;-91
2022/07/11 07:40:04;;;;;;;0.20;0.20;;;18.60;99.90;;;;;;4977973;28;20558;-89
2022/07/11 07:42:30;;;;;;;0.67;0.30;;;18.40;99.90;;;;;;5010352;28;20211;-91
2022/07/11 07:44:56;;;;;;;0.17;0.17;;;18.40;99.90;;;;;;4986123;28;20216;-92
2022/07/11 07:47:22;;;;;;;0.10;0.10;;;18.60;99.90;;;;;;4978809;28;20277;-89
2022/07/11 07:49:47;;;;;;;0.40;0.40;;;18.60;99.90;;;;;;5009959;28;20270;-90
2022/07/11 07:52:14;;;;;;;0.43;0.30;;;18.60;99.90;;;;;;4994829;28;20196;-94
2022/07/11 07:54:40;;;;;;;0.20;0.20;;;18.70;99.90;;;;;;4992071;28;20222;-91
2022/07/11 07:57:06;;;;;;;0.30;0.30;;;18.60;99.90;;;;;;4981233;28;20284;-90
2022/07/11 07:59:31;;;;;;;2.00;0.37;;;18.30;99.90;;;;;;4993596;28;20306;-90
2022/07/11 08:01:57;;;;;;;0.20;0.20;;;18.20;99.90;;;;;;4969580;28;20314;-91
2022/07/11 08:04:23;;;;;;;0.23;0.23;;;18.30;99.90;;;;;;5009911;28;21149;-91
2022/07/11 08:06:48;;;;;;;0.20;0.20;;;18.50;99.90;;;;;;4993383;28;20228;-92
2022/07/11 08:09:14;;;;;;;0.30;0.30;;;18.70;99.90;;;;;;5010508;28;20216;-90
2022/07/11 08:11:40;;;;;;;0.30;0.30;;;18.90;99.90;;;;;;5009693;28;20219;-91
2022/07/11 08:14:07;;;;;;;1.90;0.33;;;18.70;99.90;;;;;;4987461;28;20219;-89
2022/07/11 08:16:33;;;;;;;0.10;0.10;;;18.40;99.90;;;;;;4994465;28;20215;-91
2022/07/11 08:19:03;;;;;;;0.20;0.20;;;18.50;99.90;;;;;;5003748;28;20200;-92
2022/07/11 08:21:30;;;;;;;1.40;0.20;;;18.70;99.90;;;;;;5008994;28;20689;-90
2022/07/11 08:23:57;;;;;;;0.30;0.30;;;19.30;99.90;;;;;;5002483;28;20228;-89
2022/07/11 08:26:23;;;;;;;0.23;0.23;;;19.20;99.90;;;;;;4992269;28;21223;-88
2022/07/11 08:28:51;;;;;;;2.80;0.50;;;19.70;99.90;;;;;;5009205;28;20235;-89
2022/07/11 08:31:17;;;;;;;0.20;0.20;;;19.60;99.90;;;;;;4992379;28;20191;-93
2022/07/11 08:33:42;;;;;;;0.30;0.30;;;19.50;99.90;;;;;;4993971;28;20201;-93
2022/07/11 08:36:08;;;;;;;0.30;0.30;;;19.30;99.90;;;;;;4984073;28;20208;-91
2022/07/11 08:38:34;;;;;;;0.20;0.20;;;18.80;99.90;;;;;;4993172;28;20215;-91
2022/07/11 08:41:00;;;;;;;0.20;0.20;;;18.60;99.90;;;;;;5001349;28;20640;-91
2022/07/11 08:43:29;;;;;;;0.37;0.30;;;18.50;99.90;;;;;;4969537;28;20219;-91
2022/07/11 08:45:56;;;;;;;0.40;0.40;;;18.70;99.90;;;;;;5003513;28;20211;-89
2022/07/11 08:48:23;;;;;;;0.30;0.30;;;18.80;99.90;;;;;;5009789;28;20234;-89
2022/07/11 08:50:52;;;;;;;0.30;0.30;;;19.50;99.90;;;;;;5009124;28;20219;-89
2022/07/11 08:53:18;;;;;;;0.20;0.20;;;20.20;99.90;;;;;;5002228;28;20214;-89
2022/07/11 08:55:44;;;;;;;0.87;0.60;;;20.40;99.90;;;;;;5000058;28;20239;-88
2022/07/11 08:58:10;;;;;;;0.27;0.27;;;19.90;99.90;;;;;;4993832;28;20214;-89
2022/07/11 09:00:36;;;;;;;0.30;0.30;;;19.70;99.90;;;;;;5008930;28;20235;-89
2022/07/11 09:03:05;;;;;;;0.20;0.20;;;19.60;99.90;;;;;;5001413;28;21336;-90
2022/07/11 09:05:33;;;;;;;0.20;0.20;;;19.50;99.90;;;;;;5001055;28;20230;-89
2022/07/11 09:07:59;;;;;;;0.20;0.20;;;19.40;99.90;;;;;;4979414;28;20301;-89
2022/07/11 09:10:25;;;;;;;0.30;0.30;;;19.30;99.90;;;;;;4989723;28;20562;-90
2022/07/11 09:13:00;;;;;;;0.63;0.30;;;19.30;99.90;;;;;;4973211;28;20187;-90
2022/07/11 09:15:36;;;;;;;0.20;0.20;;;19.20;99.90;;;;;;4987698;28;20227;-92
2022/07/11 09:18:04;;;;;;;0.20;0.20;;;19.30;99.90;;;;;;4984000;28;20247;-90
2022/07/11 09:26:29;;;;;;;0.40;0.20;;;19.60;99.90;;;;;;4999908;28;20211;-88
2022/07/11 09:29:09;;;;;;;0.30;0.30;;;19.60;99.90;;;;;;5004265;28;20216;-88
2022/07/11 09:31:37;;;;;;;0.40;0.40;;;19.70;99.90;;;;;;5004221;28;20292;-89
2022/07/11 09:34:08;;;;;;;0.20;0.20;;;19.20;99.90;;;;;;5020025;28;20183;-90
2022/07/11 09:36:40;;;;;;;0.30;0.30;;;19.70;99.90;;;;;;5006326;28;20210;-89
2022/07/11 09:39:09;;;;;;;0.47;0.40;;;19.50;99.90;;;;;;5004916;28;20711;-88
2022/07/11 09:41:36;;;;;;;0.30;0.30;;;19.50;99.90;;;;;;5012131;28;20214;-89
2022/07/11 09:44:09;;;;;;;0.33;0.33;;;19.70;99.90;;;;;;5019858;28;20295;-88
2022/07/11 09:46:36;;;;;;;0.50;0.47;;;19.60;99.90;;;;;;5002110;28;20298;-88
2022/07/11 09:49:03;;;;;;;0.30;0.30;;;19.20;99.90;;;;;;4996074;28;20670;-88
2022/07/11 09:51:29;;;;;;;1.17;0.33;;;19.40;99.90;;;;;;5004411;28;20208;-93
2022/07/11 09:53:56;;;;;;;0.30;0.30;;;19.50;99.90;;;;;;5003232;28;20278;-88
2022/07/11 09:56:32;;;;;;;0.30;0.30;;;19.80;99.90;;;;;;5010620;28;20273;-92
2022/07/11 09:59:03;;;;;;;0.77;0.40;;;19.80;99.90;;;;;;5005412;28;20222;-94
2022/07/11 10:01:31;;;;;;;0.30;0.30;;;20.10;99.90;;;;;;5004887;28;20200;-93
2022/07/11 10:03:58;;;;;;;2.57;0.30;;;20.30;99.90;;;;;;5011775;28;20222;-93
2022/07/11 10:06:24;;;;;;;0.27;0.27;;;20.20;99.90;;;;;;4979413;28;20282;-93
2022/07/11 10:08:54;;;;;;;0.20;0.20;;;19.80;99.90;;;;;;5003526;28;20234;-92
2022/07/11 10:11:20;;;;;;;0.33;0.33;;;19.50;99.90;;;;;;5011781;28;20702;-92
2022/07/11 10:13:46;;;;;;;1.07;0.47;;;19.50;99.90;;;;;;4995586;28;20726;-93
2022/07/11 10:16:33;;;;;;;0.40;0.40;;;19.50;99.90;;;;;;4995712;28;20202;-93
2022/07/11 10:19:42;;;;;;;0.40;0.40;;;20.30;99.90;;;;;;5000912;28;20216;-92
2022/07/11 10:22:29;;;;;;;0.40;0.40;;;20.30;99.90;;;;;;5002919;28;20223;-92
2022/07/11 10:24:57;;;;;;;0.30;0.30;;;20.20;99.90;;;;;;5028674;28;20612;-93
2022/07/11 10:27:51;;;;;;;0.30;0.30;;;20.10;99.90;;;;;;5027899;28;20706;-94
2022/07/11 10:30:44;;;;;;;0.40;0.40;;;20.30;99.90;;;;;;5019677;28;20207;-94
2022/07/11 10:33:10;;;;;;;0.30;0.30;;;19.60;99.90;;;;;;5001015;28;20580;-94
2022/07/11 10:35:39;;;;;;;1.70;0.40;;;19.20;99.90;;;;;;5012800;28;20207;-93
2022/07/11 10:38:06;;;;;;;0.43;0.40;;;19.00;99.90;;;;;;5003179;28;20204;-93
2022/07/11 10:40:45;;;;;;;0.40;0.40;;;19.00;99.90;;;;;;5004049;28;20176;-93
2022/07/11 10:43:13;;;;;;;0.43;0.40;;;19.30;99.90;;;;;;4988379;28;21154;-94
2022/07/11 10:46:09;;;;;;;0.40;0.40;;;19.70;99.90;;;;;;5005741;28;20207;-92
2022/07/11 10:48:51;;;;;;;0.40;0.40;;;20.00;99.90;;;;;;4979477;28;20213;-93
2022/07/11 10:51:23;;;;;;;3.47;0.33;;;20.00;99.90;;;;;;4990028;28;20219;-94
2022/07/11 10:53:51;;;;;;;0.37;0.37;;;19.70;99.90;;;;;;5020392;28;20212;-94
2022/07/11 10:56:34;;;;;;;0.83;0.50;;;19.60;99.90;;;;;;5003273;28;20298;-92
2022/07/11 10:59:21;;;;;;;0.40;0.40;;;19.70;99.90;;;;;;5018754;28;20626;-94
2022/07/11 11:02:07;;;;;;;2.17;0.33;;;19.60;99.90;;;;;;5002755;28;20215;-94
2022/07/11 11:04:41;;;;;;;0.50;0.50;;;19.60;99.90;;;;;;5005003;28;20254;-94
2022/07/11 11:07:26;;;;;;;0.43;0.40;;;19.80;99.90;;;;;;5004569;28;20238;-93
2022/07/11 11:09:52;;;;;;;0.83;0.60;;;20.00;99.90;;;;;;5021476;28;20295;-96
2022/07/11 11:12:18;;;;;;;2.50;0.50;;;19.80;99.90;;;;;;5012680;28;20231;-95
2022/07/11 11:14:44;;;;;;;0.30;0.30;;;20.00;99.90;;;;;;5012928;28;20223;-94
2022/07/11 11:17:40;;;;;;;0.30;0.30;;;20.40;99.90;;;;;;4987921;28;20219;-92
2022/07/11 11:20:06;;;;;;;0.47;0.47;;;20.50;99.90;;;;;;5003443;28;20267;-90
2022/07/11 11:22:33;;;;;;;0.37;0.37;;;20.30;99.90;;;;;;5008128;28;20195;-94
2022/07/11 11:24:59;;;;;;;0.67;0.67;;;20.40;99.90;;;;;;5005250;28;20293;-92
2022/07/11 11:27:26;;;;;;;0.37;0.37;;;20.60;99.90;;;;;;5002216;28;20235;-93
2022/07/11 11:29:54;;;;;;;0.93;0.50;;;20.60;99.90;;;;;;5003975;28;20212;-92
2022/07/11 11:32:29;;;;;;;0.70;0.63;;;20.50;99.90;;;;;;4986785;28;20208;-92
2022/07/11 11:34:56;;;;;;;0.50;0.50;;;20.00;99.90;;;;;;5004086;28;20257;-92
2022/07/11 11:37:24;;;;;;;0.57;0.40;;;19.90;99.90;;;;;;5022744;28;20675;-92
2022/07/11 11:40:18;;;;;;;1.00;0.70;;;19.90;99.90;;;;;;5022064;28;20205;-96
2022/07/11 11:42:47;;;;;;;0.97;0.40;;;19.80;99.90;;;;;;5010879;28;20207;-94
2022/07/11 11:45:18;;;;;;;2.60;0.50;;;19.70;99.90;;;;;;4999790;28;20223;-96
2022/07/11 11:47:48;;;;;;;0.43;0.43;;;20.00;99.90;;;;;;5013460;28;20234;-95
2022/07/11 11:50:17;;;;;;;0.30;0.30;;;19.80;99.90;;;;;;5001913;28;20220;-94
2022/07/11 11:52:43;;;;;;;1.17;0.87;;;19.30;99.90;;;;;;5018670;28;20227;-94
2022/07/11 11:55:09;;;;;;;1.43;0.50;;;19.30;99.90;;;;;;5005946;28;20590;-93
2022/07/11 11:57:35;;;;;;;0.93;0.70;;;19.10;99.90;;;;;;5003378;28;20246;-94
2022/07/11 12:00:00;;;;;;;0.60;0.43;;;19.20;99.90;;;;;;5010433;28;20672;-92
2022/07/11 12:02:30;;;;;;;0.60;0.60;;;19.20;99.90;;;;;;5002572;28;20582;-92
2022/07/11 12:05:06;;;;;;;0.80;0.63;;;19.10;99.90;;;;;;4987057;28;20243;-94
2022/07/11 12:07:32;;;;;;;1.33;1.00;;;19.40;99.90;;;;;;5024523;28;20263;-93
2022/07/11 12:09:59;;;;;;;1.00;0.57;;;19.80;99.90;;;;;;4989597;28;20198;-93
2022/07/11 12:12:44;;;;;;;0.50;0.50;;;20.10;99.90;;;;;;5011156;28;20216;-91
2022/07/11 12:15:34;;;;;;;0.67;0.63;;;19.80;99.90;;;;;;5003034;28;20211;-95
2022/07/11 12:18:04;;;;;;;0.50;0.50;;;19.80;99.90;;;;;;5009024;28;20204;-91
2022/07/11 12:20:43;;;;;;;0.87;0.47;;;19.60;99.90;;;;;;4993680;28;20756;-90
2022/07/11 12:23:16;;;;;;;0.40;0.40;;;19.30;99.90;;;;;;4968387;28;20220;-90
2022/07/11 12:25:42;;;;;;;1.53;0.40;;;19.20;99.90;;;;;;4968595;28;20583;-92
2022/07/11 12:28:09;;;;;;;0.50;0.50;;;19.40;99.90;;;;;;4995441;28;20199;-93
2022/07/11 12:30:38;;;;;;;0.40;0.40;;;19.90;99.90;;;;;;4987424;28;20207;-95
2022/07/11 12:33:12;;;;;;;1.07;0.80;;;19.90;99.90;;;;;;5005381;28;20216;-94
2022/07/11 12:35:58;;;;;;;0.57;0.57;;;20.30;99.90;;;;;;5007992;28;20219;-93
2022/07/11 12:38:25;;;;;;;0.60;0.60;;;20.50;99.90;;;;;;5020670;28;20215;-92
2022/07/11 12:41:02;;;;;;;0.87;0.73;;;20.50;99.90;;;;;;5012997;28;20215;-94
2022/07/11 12:46:34;;;;;;;0.63;0.60;;;19.80;99.90;;;;;;5012550;28;20210;-93
2022/07/11 12:49:02;;;;;;;0.73;0.73;;;19.70;99.90;;;;;;4992668;28;20208;-94
2022/07/11 12:51:40;;;;;;;0.70;0.50;;;19.50;99.90;;;;;;4999342;28;20215;-94
2022/07/11 12:54:11;;;;;;;1.13;0.67;;;19.70;99.90;;;;;;4989632;28;20219;-92
2022/07/11 12:56:38;;;;;;;0.73;0.73;;;19.80;99.90;;;;;;4997258;28;20703;-93
2022/07/11 12:59:05;;;;;;;0.43;0.43;;;19.90;99.90;;;;;;5001918;28;20302;-93
2022/07/11 13:01:32;;;;;;;0.87;0.87;;;19.90;99.90;;;;;;5018335;28;20196;-94
2022/07/11 13:03:59;;;;;;;0.70;0.70;;;20.10;99.90;;;;;;5006318;28;20187;-93